Michipicoten — CFG8060 — position and weather

sailwx.info

Track history (hours):
 
Tides and Currents Weather Stations Pressure Air Temp Water Temp Dewpoint Dewpoint Depression Visibility Wind Speed Wind Dir Waves Ship Positions

Michipicoten

Last reported at 2017-Jun-25 13:30 UTC. Time now 2017-Jun-25 22:40 UTC.
Position N 46°52' W 091°36'.

Length 213 m; draft 7.3 m.

Type: Ship. MMSI: 316002501.

Date/timePositionNaut miles runAvg speedWind from/ knotsBaromVisibWave heightAir tempDewpointWater temp
2017-Jun-25 13:30N 46°52' W 091°36'713.7
2017-Jun-25 13:00N 46°48' W 091°45'713.7
2017-Jun-25 12:30N 46°45' W 091°54'611.5
2017-Jun-25 12:00N 46°42' W 092°01'0 0.9
2017-Jun-25 11:29N 46°42' W 092°01'0 0.0
2017-Jun-25 11:00N 46°42' W 092°01'0 0.0
2017-Jun-25 10:30N 46°42' W 092°01'0 0.0
2017-Jun-25 10:00N 46°42' W 092°01'0 0.0
2017-Jun-25 09:30N 46°42' W 092°01'0 0.0
2017-Jun-25 09:00N 46°42' W 092°01'0 0.0
2017-Jun-25 08:30N 46°42' W 092°01'0 0.0
2017-Jun-25 08:00N 46°42' W 092°01'0 0.0
2017-Jun-25 07:27N 46°42' W 092°01'0 0.0
2017-Jun-25 07:00N 46°42' W 092°01'0 0.0
2017-Jun-25 06:30N 46°42' W 092°01'0 0.0
2017-Jun-25 06:01N 46°42' W 092°01'0 0.0
2017-Jun-25 05:31N 46°42' W 092°01'0 0.1
2017-Jun-25 05:00N 46°42' W 092°01'1 1.6
2017-Jun-25 04:31N 46°43' W 092°01'1 2.5
2017-Jun-25 04:01N 46°44' W 091°60'0 0.1
2017-Jun-25 03:30N 46°44' W 091°60'0 0.0
2017-Jun-25 03:00N 46°44' W 091°60'0 0.0
2017-Jun-25 02:30N 46°44' W 091°60'0 0.0
2017-Jun-25 01:59N 46°44' W 091°60'0 0.0
2017-Jun-25 01:31N 46°44' W 091°60'0 0.0
2017-Jun-25 01:00N 46°44' W 091°60'0 0.0
2017-Jun-25 00:30N 46°44' W 091°60'0 0.0
2017-Jun-25 00:00N 46°44' W 091°60'0 0.0
2017-Jun-24 23:30N 46°44' W 091°60'0 0.1
2017-Jun-24 23:00N 46°44' W 091°60'0 0.0
2017-Jun-24 22:30N 46°44' W 091°60'0 0.0
2017-Jun-24 22:00N 46°44' W 091°60'0 0.0
2017-Jun-24 21:30N 46°44' W 091°60'0 0.0
2017-Jun-24 21:00N 46°44' W 091°60'0 0.0
2017-Jun-24 20:29N 46°44' W 091°60'0 0.0
2017-Jun-24 20:00N 46°44' W 091°60'0 0.0
2017-Jun-24 19:30N 46°44' W 091°60'0 0.0
2017-Jun-24 19:00N 46°44' W 091°60'0 0.0
2017-Jun-24 18:29N 46°44' W 091°60'0 0.0
2017-Jun-24 18:00N 46°44' W 091°60'0 0.0
2017-Jun-24 17:31N 46°44' W 091°60'0 0.0
2017-Jun-24 17:01N 46°44' W 091°60'0 0.0
2017-Jun-24 16:30N 46°44' W 091°60'0 0.0
2017-Jun-24 16:01N 46°44' W 091°60'0 0.0
2017-Jun-24 15:30N 46°44' W 091°60'0 0.0
2017-Jun-24 15:00N 46°44' W 091°60'1 0.9
2017-Jun-24 14:01N 46°44' W 091°59'611.8
2017-Jun-24 13:31N 46°46' W 091°51'714.1
2017-Jun-24 13:01N 46°49' W 091°41'30013.0
2017-Jun-23 14:00N 46°29' W 084°26'3 5.3
2017-Jun-23 13:29N 46°31' W 084°23'0 0.0
2017-Jun-23 13:00N 46°31' W 084°23'0 0.0
2017-Jun-23 12:31N 46°31' W 084°23'0 0.0
2017-Jun-23 12:00N 46°31' W 084°23'0 0.0
2017-Jun-23 11:30N 46°31' W 084°23'0 0.0
2017-Jun-23 11:00N 46°31' W 084°23'0 0.0
2017-Jun-23 10:30N 46°31' W 084°23'0 0.0
2017-Jun-23 09:57N 46°31' W 084°23'0 0.0
2017-Jun-23 09:30N 46°31' W 084°23'0 0.0
2017-Jun-23 09:00N 46°31' W 084°23'0 0.0
2017-Jun-23 08:20N 46°31' W 084°23'0 0.0
2017-Jun-23 07:57N 46°31' W 084°23'29711.8
2017-Jun-22 06:52N 46°52' W 091°35'513.5
2017-Jun-22 06:30N 46°50' W 091°41'713.4
2017-Jun-22 06:00N 46°47' W 091°49'713.4
2017-Jun-22 05:30N 46°44' W 091°58'3 5.5
2017-Jun-22 05:00N 46°42' W 092°01'0 0.2
2017-Jun-22 04:30N 46°42' W 092°01'0 0.0
2017-Jun-22 04:00N 46°42' W 092°01'0 0.0
2017-Jun-22 03:30N 46°42' W 092°01'0 0.0
2017-Jun-22 03:00N 46°42' W 092°01'0 0.0
2017-Jun-22 02:31N 46°42' W 092°01'0 0.0
2017-Jun-22 02:00N 46°42' W 092°01'0 0.0
2017-Jun-22 01:30N 46°42' W 092°01'0 0.0
2017-Jun-22 01:00N 46°42' W 092°01'0 0.0
2017-Jun-22 00:30N 46°42' W 092°01'0 0.0
2017-Jun-21 23:36N 46°42' W 092°01'0 0.4
2017-Jun-21 23:30N 46°42' W 092°01'1 1.8
2017-Jun-21 23:01N 46°43' W 092°00'2 3.7
2017-Jun-21 22:31N 46°44' W 091°59'0 0.7
2017-Jun-21 22:00N 46°44' W 091°59'0 0.5
2017-Jun-21 21:30N 46°44' W 091°59'0 0.7
2017-Jun-21 21:00N 46°44' W 091°60'0 0.7
2017-Jun-21 20:31N 46°44' W 091°60'0 0.1
2017-Jun-21 20:01N 46°44' W 091°60'0 0.0
2017-Jun-21 19:30N 46°44' W 091°60'0 0.0
2017-Jun-21 19:00N 46°44' W 091°60'0 0.0
2017-Jun-21 18:30N 46°44' W 091°60'0 0.0
2017-Jun-21 18:00N 46°44' W 091°60'0 0.0
2017-Jun-21 17:30N 46°44' W 091°60'0 0.0
2017-Jun-21 17:00N 46°44' W 091°60'0 0.0
2017-Jun-21 16:30N 46°44' W 091°60'0 0.0
2017-Jun-21 16:00N 46°44' W 091°60'0 0.1
2017-Jun-21 15:30N 46°44' W 091°60'2 4.0
2017-Jun-21 15:01N 46°44' W 091°57'713.8
2017-Jun-21 14:31N 46°47' W 091°48'33911.3
2017-Jun-20 08:26N 45°48' W 083°45'614.3
2017-Jun-20 08:00N 45°43' W 083°40'714.1
2017-Jun-20 07:30N 45°37' W 083°34'714.2
2017-Jun-20 07:00N 45°31' W 083°28'714.0
2017-Jun-20 06:30N 45°25' W 083°22'713.9
2017-Jun-20 06:00N 45°19' W 083°17'8 0.2
2017-Jun-18 18:22N 45°27' W 083°14'514.0
2017-Jun-18 18:00N 45°31' W 083°19'713.9
2017-Jun-18 17:30N 45°36' W 083°26'713.7
2017-Jun-18 17:00N 45°41' W 083°33'24 1.8
2017-Jun-18 03:49N 46°00' W 083°54'75 1.9
2017-Jun-16 13:12N 46°53' W 085°11'413.7
2017-Jun-16 12:55N 46°54' W 085°16'26913.2
2017-Jun-15 16:34N 46°52' W 091°50'113.5
2017-Jun-15 16:30N 46°52' W 091°50'713.9
2017-Jun-15 16:00N 46°49' W 091°60'510.2
2017-Jun-15 15:30N 46°46' W 092°06'1 1.6
2017-Jun-15 15:00N 46°45' W 092°06'0 0.0
2017-Jun-15 14:00N 46°45' W 092°06'0 0.0
2017-Jun-15 13:30N 46°45' W 092°06'  
Track history (hours):
 
Tides and Currents Weather Stations Pressure Air Temp Water Temp Dewpoint Dewpoint Depression Visibility Wind Speed Wind Dir Waves Ship Positions

Michipicoten

Last reported at 2017-Jun-25 13:30 UTC. Time now 2017-Jun-25 22:40 UTC.
Position N 46°52' W 091°36'.

Length 213 m; draft 7.3 m.

Type: Ship. MMSI: 316002501.

Date/timePositionNaut miles runAvg speedWind from/ knotsBaromVisibWave heightAir tempDewpointWater temp
2017-Jun-25 13:30N 46°52' W 091°36'713.7
2017-Jun-25 13:00N 46°48' W 091°45'713.7
2017-Jun-25 12:30N 46°45' W 091°54'611.5
2017-Jun-25 12:00N 46°42' W 092°01'0 0.9
2017-Jun-25 11:29N 46°42' W 092°01'0 0.0
2017-Jun-25 11:00N 46°42' W 092°01'0 0.0
2017-Jun-25 10:30N 46°42' W 092°01'0 0.0
2017-Jun-25 10:00N 46°42' W 092°01'0 0.0
2017-Jun-25 09:30N 46°42' W 092°01'0 0.0
2017-Jun-25 09:00N 46°42' W 092°01'0 0.0
2017-Jun-25 08:30N 46°42' W 092°01'0 0.0
2017-Jun-25 08:00N 46°42' W 092°01'0 0.0
2017-Jun-25 07:27N 46°42' W 092°01'0 0.0
2017-Jun-25 07:00N 46°42' W 092°01'0 0.0
2017-Jun-25 06:30N 46°42' W 092°01'0 0.0
2017-Jun-25 06:01N 46°42' W 092°01'0 0.0
2017-Jun-25 05:31N 46°42' W 092°01'0 0.1
2017-Jun-25 05:00N 46°42' W 092°01'1 1.6
2017-Jun-25 04:31N 46°43' W 092°01'1 2.5
2017-Jun-25 04:01N 46°44' W 091°60'0 0.1
2017-Jun-25 03:30N 46°44' W 091°60'0 0.0
2017-Jun-25 03:00N 46°44' W 091°60'0 0.0
2017-Jun-25 02:30N 46°44' W 091°60'0 0.0
2017-Jun-25 01:59N 46°44' W 091°60'0 0.0
2017-Jun-25 01:31N 46°44' W 091°60'0 0.0
2017-Jun-25 01:00N 46°44' W 091°60'0 0.0
2017-Jun-25 00:30N 46°44' W 091°60'0 0.0
2017-Jun-25 00:00N 46°44' W 091°60'0 0.0
2017-Jun-24 23:30N 46°44' W 091°60'0 0.1
2017-Jun-24 23:00N 46°44' W 091°60'0 0.0
2017-Jun-24 22:30N 46°44' W 091°60'0 0.0
2017-Jun-24 22:00N 46°44' W 091°60'0 0.0
2017-Jun-24 21:30N 46°44' W 091°60'0 0.0
2017-Jun-24 21:00N 46°44' W 091°60'0 0.0
2017-Jun-24 20:29N 46°44' W 091°60'0 0.0
2017-Jun-24 20:00N 46°44' W 091°60'0 0.0
2017-Jun-24 19:30N 46°44' W 091°60'0 0.0
2017-Jun-24 19:00N 46°44' W 091°60'0 0.0
2017-Jun-24 18:29N 46°44' W 091°60'0 0.0
2017-Jun-24 18:00N 46°44' W 091°60'0 0.0
2017-Jun-24 17:31N 46°44' W 091°60'0 0.0
2017-Jun-24 17:01N 46°44' W 091°60'0 0.0
2017-Jun-24 16:30N 46°44' W 091°60'0 0.0
2017-Jun-24 16:01N 46°44' W 091°60'0 0.0
2017-Jun-24 15:30N 46°44' W 091°60'0 0.0
2017-Jun-24 15:00N 46°44' W 091°60'1 0.9
2017-Jun-24 14:01N 46°44' W 091°59'611.8
2017-Jun-24 13:31N 46°46' W 091°51'714.1
2017-Jun-24 13:01N 46°49' W 091°41'30013.0
2017-Jun-23 14:00N 46°29' W 084°26'3 5.3
2017-Jun-23 13:29N 46°31' W 084°23'0 0.0
2017-Jun-23 13:00N 46°31' W 084°23'0 0.0
2017-Jun-23 12:31N 46°31' W 084°23'0 0.0
2017-Jun-23 12:00N 46°31' W 084°23'0 0.0
2017-Jun-23 11:30N 46°31' W 084°23'0 0.0
2017-Jun-23 11:00N 46°31' W 084°23'0 0.0
2017-Jun-23 10:30N 46°31' W 084°23'0 0.0
2017-Jun-23 09:57N 46°31' W 084°23'0 0.0
2017-Jun-23 09:30N 46°31' W 084°23'0 0.0
2017-Jun-23 09:00N 46°31' W 084°23'0 0.0
2017-Jun-23 08:20N 46°31' W 084°23'0 0.0
2017-Jun-23 07:57N 46°31' W 084°23'29711.8
2017-Jun-22 06:52N 46°52' W 091°35'513.5
2017-Jun-22 06:30N 46°50' W 091°41'713.4
2017-Jun-22 06:00N 46°47' W 091°49'713.4
2017-Jun-22 05:30N 46°44' W 091°58'3 5.5
2017-Jun-22 05:00N 46°42' W 092°01'0 0.2
2017-Jun-22 04:30N 46°42' W 092°01'0 0.0
2017-Jun-22 04:00N 46°42' W 092°01'0 0.0
2017-Jun-22 03:30N 46°42' W 092°01'0 0.0
2017-Jun-22 03:00N 46°42' W 092°01'0 0.0
2017-Jun-22 02:31N 46°42' W 092°01'0 0.0
2017-Jun-22 02:00N 46°42' W 092°01'0 0.0
2017-Jun-22 01:30N 46°42' W 092°01'0 0.0
2017-Jun-22 01:00N 46°42' W 092°01'0 0.0
2017-Jun-22 00:30N 46°42' W 092°01'0 0.0
2017-Jun-21 23:36N 46°42' W 092°01'0 0.4
2017-Jun-21 23:30N 46°42' W 092°01'1 1.8
2017-Jun-21 23:01N 46°43' W 092°00'2 3.7
2017-Jun-21 22:31N 46°44' W 091°59'0 0.7
2017-Jun-21 22:00N 46°44' W 091°59'0 0.5
2017-Jun-21 21:30N 46°44' W 091°59'0 0.7
2017-Jun-21 21:00N 46°44' W 091°60'0 0.7
2017-Jun-21 20:31N 46°44' W 091°60'0 0.1
2017-Jun-21 20:01N 46°44' W 091°60'0 0.0
2017-Jun-21 19:30N 46°44' W 091°60'0 0.0
2017-Jun-21 19:00N 46°44' W 091°60'0 0.0
2017-Jun-21 18:30N 46°44' W 091°60'0 0.0
2017-Jun-21 18:00N 46°44' W 091°60'0 0.0
2017-Jun-21 17:30N 46°44' W 091°60'0 0.0
2017-Jun-21 17:00N 46°44' W 091°60'0 0.0
2017-Jun-21 16:30N 46°44' W 091°60'0 0.0
2017-Jun-21 16:00N 46°44' W 091°60'0 0.1
2017-Jun-21 15:30N 46°44' W 091°60'2 4.0
2017-Jun-21 15:01N 46°44' W 091°57'713.8
2017-Jun-21 14:31N 46°47' W 091°48'33911.3
2017-Jun-20 08:26N 45°48' W 083°45'614.3
2017-Jun-20 08:00N 45°43' W 083°40'714.1
2017-Jun-20 07:30N 45°37' W 083°34'714.2
2017-Jun-20 07:00N 45°31' W 083°28'714.0
2017-Jun-20 06:30N 45°25' W 083°22'713.9
2017-Jun-20 06:00N 45°19' W 083°17'8 0.2
2017-Jun-18 18:22N 45°27' W 083°14'514.0
2017-Jun-18 18:00N 45°31' W 083°19'713.9
2017-Jun-18 17:30N 45°36' W 083°26'713.7
2017-Jun-18 17:00N 45°41' W 083°33'24 1.8
2017-Jun-18 03:49N 46°00' W 083°54'75 1.9
2017-Jun-16 13:12N 46°53' W 085°11'413.7
2017-Jun-16 12:55N 46°54' W 085°16'26913.2
2017-Jun-15 16:34N 46°52' W 091°50'113.5
2017-Jun-15 16:30N 46°52' W 091°50'713.9
2017-Jun-15 16:00N 46°49' W 091°60'510.2
2017-Jun-15 15:30N 46°46' W 092°06'1 1.6
2017-Jun-15 15:00N 46°45' W 092°06'0 0.0
2017-Jun-15 14:00N 46°45' W 092°06'0 0.0
2017-Jun-15 13:30N 46°45' W 092°06'  

Dump ship's entire track history